createdAt,value
2019-03-09T00:00:46.819Z,3.27
2019-03-09T00:05:44.337Z,5.00
2019-03-09T00:10:40.059Z,4.10
2019-03-09T00:15:36.052Z,2.53
2019-03-09T00:20:31.812Z,3.00
2019-03-09T00:25:32.010Z,3.93
2019-03-09T00:30:55.652Z,2.70
2019-03-09T00:35:51.343Z,4.17
2019-03-09T00:40:46.933Z,2.97
2019-03-09T00:45:44.618Z,3.37
2019-03-09T00:50:40.356Z,3.13
2019-03-09T00:55:36.206Z,3.40
2019-03-09T01:00:31.931Z,2.97
2019-03-09T01:05:28.708Z,2.27
2019-03-09T01:10:24.398Z,2.47
2019-03-09T01:15:20.205Z,3.07
2019-03-09T01:20:16.758Z,4.83
2019-03-09T01:25:13.052Z,4.03
2019-03-09T01:30:12.063Z,3.10
2019-03-09T01:35:08.205Z,3.17
2019-03-09T01:40:04.110Z,5.53
2019-03-09T01:45:01.940Z,2.07
2019-03-09T01:49:57.838Z,3.27
2019-03-09T01:54:53.710Z,4.23
2019-03-09T01:59:49.401Z,3.73
2019-03-09T02:04:45.232Z,2.83
2019-03-09T02:09:42.190Z,3.00
2019-03-09T02:14:38.122Z,2.43
2019-03-09T02:19:33.956Z,3.40
2019-03-09T02:24:29.807Z,5.80
2019-03-09T02:29:25.760Z,4.80
2019-03-09T02:34:21.498Z,3.50
2019-03-09T02:39:48.385Z,3.17
2019-03-09T02:44:44.121Z,4.77
2019-03-09T02:49:40.013Z,3.10
2019-03-09T02:54:35.672Z,2.93
2019-03-09T02:59:31.453Z,2.43
2019-03-09T03:04:27.191Z,2.07
2019-03-09T03:09:22.860Z,2.60
2019-03-09T03:14:18.576Z,3.53
2019-03-09T03:19:14.401Z,3.90
2019-03-09T03:24:10.270Z,3.20
2019-03-09T03:29:06.055Z,3.07
2019-03-09T03:34:01.890Z,3.57
2019-03-09T03:38:57.707Z,3.20
2019-03-09T03:43:53.411Z,3.17
2019-03-09T03:48:49.231Z,2.90
2019-03-09T03:53:44.961Z,2.03
2019-03-09T03:58:40.888Z,3.23
2019-03-09T04:03:36.610Z,2.20
2019-03-09T04:08:32.620Z,2.03
2019-03-09T04:13:28.232Z,3.53
2019-03-09T04:18:24.009Z,2.63
2019-03-09T04:23:19.710Z,1.90
2019-03-09T04:28:15.542Z,3.40
2019-03-09T04:33:11.239Z,1.93
2019-03-09T04:38:07.015Z,2.43
2019-03-09T04:43:02.722Z,3.87
2019-03-09T04:47:58.520Z,2.80
2019-03-09T04:52:54.148Z,3.53
2019-03-09T04:57:49.840Z,2.93
2019-03-09T05:02:45.588Z,3.50
2019-03-09T05:08:13.821Z,3.23
2019-03-09T05:13:36.311Z,2.20
2019-03-09T05:18:32.133Z,2.40
2019-03-09T05:23:27.884Z,3.97
2019-03-09T05:28:23.592Z,3.00
2019-03-09T05:33:19.331Z,2.40
2019-03-09T05:38:15.093Z,5.20
2019-03-09T05:43:10.832Z,5.67
2019-03-09T05:48:06.521Z,4.17
2019-03-09T05:53:13.756Z,2.90
2019-03-09T05:58:09.637Z,5.93
2019-03-09T06:03:05.426Z,5.67
2019-03-09T06:08:02.277Z,4.93
2019-03-09T06:12:58.067Z,5.03
2019-03-09T06:17:53.903Z,3.07
2019-03-09T06:22:50.288Z,3.20
2019-03-09T06:27:48.276Z,3.13
2019-03-09T06:33:18.092Z,2.60
2019-03-09T06:39:05.343Z,4.10
2019-03-09T06:44:02.164Z,4.73
2019-03-09T06:48:58.657Z,6.83
2019-03-09T06:53:54.389Z,3.73
2019-03-09T06:58:50.387Z,3.17
2019-03-09T07:03:46.049Z,4.40
2019-03-09T07:08:41.927Z,2.90
2019-03-09T07:13:37.672Z,4.90
2019-03-09T07:18:36.048Z,3.70
2019-03-09T07:23:32.579Z,3.50
2019-03-09T07:28:28.311Z,4.03
2019-03-09T07:33:24.105Z,6.10
2019-03-09T07:38:19.993Z,3.50
2019-03-09T07:43:15.893Z,3.37
2019-03-09T07:48:11.756Z,3.07
2019-03-09T07:53:07.590Z,3.57
2019-03-09T07:58:07.250Z,3.23
2019-03-09T08:03:03.106Z,3.90
2019-03-09T08:07:58.994Z,3.30
2019-03-09T08:12:54.840Z,2.70
2019-03-09T08:17:53.442Z,2.97
2019-03-09T08:22:49.276Z,2.47
2019-03-09T08:27:45.232Z,4.60
2019-03-09T08:32:41.096Z,2.30
2019-03-09T08:37:36.848Z,2.57
2019-03-09T08:42:32.662Z,3.47
2019-03-09T08:47:28.409Z,2.10
2019-03-09T08:52:24.193Z,2.50
2019-03-09T08:57:20.017Z,2.10
2019-03-09T09:02:16.892Z,2.20
2019-03-09T09:07:12.785Z,2.97
2019-03-09T09:12:08.688Z,2.53
2019-03-09T09:17:04.484Z,3.30
2019-03-09T09:22:01.399Z,4.17
2019-03-09T09:26:57.203Z,4.30
2019-03-09T09:31:52.852Z,2.87
2019-03-09T09:36:48.600Z,3.13
2019-03-09T09:41:44.413Z,3.40
2019-03-09T09:46:40.231Z,3.87
2019-03-09T09:51:36.024Z,5.37
2019-03-09T09:56:32.894Z,4.27
2019-03-09T10:01:28.880Z,4.53
2019-03-09T10:06:24.659Z,3.10
2019-03-09T10:11:20.449Z,3.90
2019-03-09T10:16:16.248Z,3.83
2019-03-09T10:21:12.224Z,9.37
2019-03-09T10:26:08.104Z,3.17
2019-03-09T10:31:04.133Z,3.13
2019-03-09T10:36:01.485Z,4.47
2019-03-09T10:40:57.256Z,5.23
2019-03-09T10:45:53.246Z,5.07
2019-03-09T10:50:49.100Z,6.07
2019-03-09T10:55:47.486Z,7.60
2019-03-09T11:00:43.410Z,5.63
2019-03-09T11:05:39.304Z,5.63
2019-03-09T11:10:35.115Z,5.97
2019-03-09T11:15:31.040Z,4.50
2019-03-09T11:20:27.030Z,7.10
2019-03-09T11:25:23.000Z,6.60
2019-03-09T11:30:20.814Z,5.87
2019-03-09T11:35:16.701Z,4.70
2019-03-09T11:40:13.843Z,5.37
2019-03-09T11:45:10.224Z,4.27
2019-03-09T11:50:06.921Z,5.83
2019-03-09T11:55:02.751Z,3.47
2019-03-09T11:59:58.585Z,4.47
2019-03-09T12:04:54.597Z,3.93
2019-03-09T12:09:50.355Z,7.40
2019-03-09T12:14:46.227Z,6.33
2019-03-09T12:19:42.164Z,2.90
2019-03-09T12:24:37.938Z,4.50
2019-03-09T12:29:33.932Z,6.30
2019-03-09T12:34:29.707Z,4.80
2019-03-09T12:39:25.592Z,4.20
2019-03-09T12:44:22.624Z,3.27
2019-03-09T12:49:19.402Z,6.20
2019-03-09T12:54:15.655Z,5.43
2019-03-09T12:59:11.633Z,5.53
2019-03-09T13:04:12.683Z,4.77
2019-03-09T13:09:08.643Z,3.50
2019-03-09T13:14:08.165Z,3.70
2019-03-09T13:19:04.146Z,3.93
2019-03-09T13:23:59.926Z,5.03
2019-03-09T13:28:55.867Z,4.27
2019-03-09T13:33:51.723Z,2.97
2019-03-09T13:38:47.602Z,2.60
2019-03-09T13:43:43.503Z,3.83
2019-03-09T13:48:40.309Z,5.50
2019-03-09T13:53:36.219Z,6.07
2019-03-09T13:58:31.984Z,4.83
2019-03-09T14:03:27.779Z,4.77
2019-03-09T14:08:23.696Z,6.27
2019-03-09T14:13:19.563Z,4.17
2019-03-09T14:18:15.540Z,4.87
2019-03-09T14:23:11.317Z,4.63
2019-03-09T14:28:07.211Z,4.97
2019-03-09T14:33:02.990Z,8.07
2019-03-09T14:37:58.830Z,4.13
2019-03-09T14:42:54.840Z,4.93
2019-03-09T14:47:50.629Z,5.87
2019-03-09T14:52:46.433Z,5.60
2019-03-09T14:57:42.678Z,4.33
2019-03-09T15:02:38.454Z,5.47
2019-03-09T15:07:34.268Z,5.67
2019-03-09T15:12:29.988Z,5.47
2019-03-09T15:17:25.883Z,5.37
2019-03-09T15:22:21.768Z,5.87
2019-03-09T15:27:17.719Z,5.60
2019-03-09T15:32:13.624Z,6.00
2019-03-09T15:37:09.504Z,5.63
2019-03-09T15:42:05.619Z,6.47
2019-03-09T15:47:01.536Z,7.43
2019-03-09T15:51:57.470Z,6.47
2019-03-09T15:56:53.185Z,4.80
2019-03-09T16:01:49.041Z,4.63
2019-03-09T16:06:45.010Z,5.33
2019-03-09T16:11:44.817Z,5.83
2019-03-09T16:16:38.389Z,6.20
2019-03-09T16:21:34.167Z,6.40
2019-03-09T16:26:30.331Z,8.67
2019-03-09T16:31:26.645Z,10.60
2019-03-09T16:36:22.543Z,10.67
2019-03-09T16:41:18.343Z,17.90
2019-03-09T16:46:14.322Z,15.13
2019-03-09T16:51:10.195Z,22.57
2019-03-09T16:56:06.334Z,14.50
2019-03-09T17:01:02.180Z,19.80
2019-03-09T17:05:58.021Z,12.60
2019-03-09T17:10:53.787Z,22.27
2019-03-09T17:15:49.672Z,16.03
2019-03-09T17:20:45.980Z,16.90
2019-03-09T17:25:41.901Z,13.90
2019-03-09T17:30:37.688Z,12.50
2019-03-09T17:35:33.725Z,9.80
2019-03-09T17:40:29.757Z,17.33
2019-03-09T17:45:31.339Z,16.30
2019-03-09T17:50:32.560Z,8.20
2019-03-09T17:55:34.835Z,9.17
2019-03-09T18:00:42.409Z,12.13
2019-03-09T18:05:38.648Z,10.43
2019-03-09T18:10:44.822Z,12.07
2019-03-09T18:15:45.679Z,12.20
2019-03-09T18:20:43.756Z,16.03
2019-03-09T18:25:48.104Z,12.43
2019-03-09T18:30:47.748Z,20.70
2019-03-09T18:35:45.697Z,10.80
2019-03-09T18:40:42.918Z,17.83
2019-03-09T18:45:39.526Z,12.50
2019-03-09T18:50:35.370Z,11.60
2019-03-09T18:55:32.853Z,16.07
2019-03-09T19:00:36.173Z,11.27
2019-03-09T19:05:47.594Z,8.37
2019-03-09T19:10:42.322Z,14.53
2019-03-09T19:15:38.308Z,10.10
2019-03-09T19:20:34.148Z,8.43
2019-03-09T19:25:31.171Z,25.80
2019-03-09T19:30:29.379Z,16.47
2019-03-09T19:35:45.132Z,19.00
2019-03-09T19:40:41.296Z,13.03
2019-03-09T19:45:55.120Z,19.47
2019-03-09T19:50:47.356Z,19.23
2019-03-09T19:55:45.828Z,22.50
2019-03-09T20:00:43.093Z,21.33
2019-03-09T20:05:38.988Z,59.30
2019-03-09T20:10:37.123Z,14.60
2019-03-09T20:15:33.586Z,15.70
2019-03-09T20:20:29.626Z,12.07
2019-03-09T20:25:25.583Z,11.87
2019-03-09T20:30:21.949Z,16.10
2019-03-09T20:35:17.844Z,12.63
2019-03-09T20:40:16.801Z,13.40
2019-03-09T20:45:14.718Z,13.17
2019-03-09T20:50:13.016Z,27.20
2019-03-09T20:55:09.217Z,33.50
2019-03-09T21:00:05.828Z,28.93
2019-03-09T21:05:02.008Z,18.57
2019-03-09T21:09:58.574Z,17.47
2019-03-09T21:14:56.048Z,15.57
2019-03-09T21:19:51.888Z,19.83
2019-03-09T21:24:47.785Z,19.13
2019-03-09T21:29:43.958Z,15.83
2019-03-09T21:34:39.740Z,27.50
2019-03-09T21:39:35.734Z,18.07
2019-03-09T21:44:31.538Z,14.83
2019-03-09T21:49:27.617Z,25.00
2019-03-09T21:54:23.431Z,11.80
2019-03-09T21:59:20.199Z,13.13
2019-03-09T22:04:16.151Z,13.17
2019-03-09T22:09:12.092Z,12.77
2019-03-09T22:14:08.840Z,12.47
2019-03-09T22:19:05.041Z,15.27
2019-03-09T22:24:00.960Z,15.30
2019-03-09T22:28:57.045Z,14.97
2019-03-09T22:33:52.928Z,14.10
2019-03-09T22:38:48.677Z,13.47
2019-03-09T22:43:44.556Z,18.70
2019-03-09T22:48:42.133Z,14.67
2019-03-09T22:53:37.924Z,19.57
2019-03-09T22:58:34.279Z,18.10
2019-03-09T23:03:30.250Z,18.40
2019-03-09T23:08:26.371Z,15.83
2019-03-09T23:13:22.437Z,16.13
2019-03-09T23:18:18.450Z,14.00
2019-03-09T23:23:14.360Z,13.47
2019-03-09T23:28:10.408Z,13.30
2019-03-09T23:33:06.183Z,14.77
2019-03-09T23:38:01.989Z,13.07
2019-03-09T23:42:57.759Z,15.33
2019-03-09T23:47:53.884Z,12.77
2019-03-09T23:52:50.198Z,16.40
2019-03-09T23:57:46.304Z,17.60
